Time;durP1;ratioP1;P1;durP2;ratioP2;P2;SDS_P1;SDS_P2;PMS_P1;PMS_P2;Temp;Humidity;BMP_temperature;BMP_pressure;BME280_temperature;BME280_humidity;BME280_pressure;Samples;Min_cycle;Max_cycle;Signal;HPM_P1;HPM_P2
2022/05/05 00:00:00;;;;;;;4.73;4.03;;;;;;;9.83;72.05;95279.13;5035255;28;20217;-68
2022/05/05 00:02:29;;;;;;;4.93;4.53;;;;;;;9.82;71.94;95279.47;5034082;28;20549;-68
2022/05/05 00:04:57;;;;;;;4.47;4.10;;;;;;;9.78;71.59;95279.38;5034406;28;20220;-69
2022/05/05 00:07:25;;;;;;;4.32;3.90;;;;;;;9.79;72.20;95282.91;5034059;28;20209;-68
2022/05/05 00:09:53;;;;;;;5.07;4.60;;;;;;;9.77;71.45;95272.25;5018310;28;20190;-68
2022/05/05 00:15:11;;;;;;;4.40;3.83;;;;;;;9.64;72.75;95271.41;5017976;28;20190;-69
2022/05/05 00:17:39;;;;;;;4.10;3.80;;;;;;;9.65;72.93;95269.47;5034979;28;20521;-68
2022/05/05 00:20:08;;;;;;;5.00;4.47;;;;;;;9.70;72.92;95269.25;5035482;28;20193;-68
2022/05/05 00:22:38;;;;;;;4.57;4.18;;;;;;;9.68;72.36;95270.75;5017594;28;20202;-68
2022/05/05 00:25:08;;;;;;;4.13;3.80;;;;;;;9.60;71.04;95269.69;5035191;28;20421;-68
2022/05/05 00:27:37;;;;;;;5.45;4.50;;;;;;;9.49;71.53;95263.03;5017809;28;20221;-68
2022/05/05 00:30:06;;;;;;;5.03;4.20;;;;;;;9.46;72.12;95263.69;5017790;28;20242;-68
2022/05/05 00:32:36;;;;;;;5.18;4.13;;;;;;;9.47;72.46;95268.06;5034978;28;20198;-68
2022/05/05 00:35:05;;;;;;;5.57;4.63;;;;;;;9.41;72.64;95267.50;5035261;28;20240;-68
2022/05/05 00:37:33;;;;;;;5.13;4.60;;;;;;;9.45;72.64;95267.59;5034806;28;20257;-68
2022/05/05 00:40:03;;;;;;;5.67;4.83;;;;;;;9.44;72.63;95275.06;5035016;28;20503;-68
2022/05/05 00:42:34;;;;;;;4.68;4.28;;;;;;;9.39;71.84;95272.50;5017302;28;20210;-68
2022/05/05 00:45:02;;;;;;;6.17;5.57;;;;;;;9.30;71.96;95271.81;5033712;28;20218;-68
2022/05/05 00:47:33;;;;;;;5.63;5.10;;;;;;;9.25;71.69;95270.06;5017309;28;20438;-68
2022/05/05 00:50:08;;;;;;;5.20;4.45;;;;;;;9.24;71.90;95281.41;5034687;28;20187;-68
2022/05/05 00:52:36;;;;;;;6.20;5.38;;;;;;;9.16;71.29;95272.91;5034490;28;20187;-68
2022/05/05 00:55:06;;;;;;;7.15;5.30;;;;;;;9.13;71.88;95272.78;5017229;28;20614;-68
2022/05/05 00:57:37;;;;;;;5.75;5.00;;;;;;;9.12;72.11;95274.75;5017417;28;20195;-68
2022/05/05 01:00:06;;;;;;;11.05;6.82;;;;;;;9.14;72.19;95272.44;5034454;28;20190;-68
2022/05/05 01:02:35;;;;;;;9.40;6.20;;;;;;;9.16;72.42;95277.63;5034367;28;20205;-68
2022/05/05 01:05:04;;;;;;;9.07;6.93;;;;;;;9.17;72.87;95279.22;5033349;28;20226;-68
2022/05/05 01:07:32;;;;;;;9.57;6.57;;;;;;;9.18;73.27;95272.56;5034281;28;20205;-68
2022/05/05 01:10:00;;;;;;;7.65;6.60;;;;;;;9.22;72.88;95276.25;5033900;28;20194;-68
2022/05/05 01:12:31;;;;;;;6.60;5.30;;;;;;;9.18;72.59;95275.31;5034047;28;20194;-68
2022/05/05 01:15:00;;;;;;;7.87;5.60;;;;;;;9.16;73.22;95278.41;5034132;28;20186;-68
2022/05/05 01:17:27;;;;;;;7.27;4.93;;;;;;;9.21;73.21;95266.38;5034125;28;20206;-68
2022/05/05 01:19:55;;;;;;;6.10;5.45;;;;;;;9.27;73.24;95264.22;5033923;28;20193;-68
2022/05/05 01:22:26;;;;;;;6.30;5.13;;;;;;;9.23;72.99;95272.38;5033986;28;20202;-68
2022/05/05 01:30:26;;;;;;;5.73;5.17;;;;;;;9.20;73.05;95278.53;5032932;28;20230;-68
2022/05/05 01:32:54;;;;;;;8.57;6.00;;;;;;;9.18;72.56;95283.56;5034074;28;20183;-68
2022/05/05 01:35:22;;;;;;;9.00;6.07;;;;;;;9.08;71.93;95278.50;5034185;28;20261;-68
2022/05/05 01:37:52;;;;;;;8.45;7.20;;;;;;;9.02;71.94;95283.41;5033631;28;20190;-68
2022/05/05 01:40:20;;;;;;;10.25;6.65;;;;;;;9.00;72.10;95291.19;5032543;28;20202;-68
2022/05/05 01:42:51;;;;;;;9.97;7.73;;;;;;;8.94;71.86;95291.75;5033813;28;20190;-67
2022/05/05 01:45:19;;;;;;;11.50;8.03;;;;;;;8.91;72.13;95291.25;5016999;28;20229;-67
2022/05/05 01:47:47;;;;;;;8.20;7.03;;;;;;;8.88;71.94;95296.63;5034187;28;20224;-67
2022/05/05 01:50:16;;;;;;;9.35;6.90;;;;;;;8.89;72.17;95289.97;5034281;28;20204;-68
2022/05/05 01:52:44;;;;;;;7.10;6.40;;;;;;;8.89;72.78;95287.22;5016399;28;20202;-68
2022/05/05 01:55:18;;;;;;;9.17;7.00;;;;;;;8.92;73.08;95286.56;5032963;28;20201;-68
2022/05/05 01:57:46;;;;;;;9.80;7.43;;;;;;;8.92;72.42;95295.63;5016349;28;20194;-68
2022/05/05 02:00:16;;;;;;;8.97;7.13;;;;;;;8.88;72.62;95302.13;5033798;28;20198;-68
2022/05/05 02:02:46;;;;;;;8.40;6.97;;;;;;;8.85;72.24;95309.09;5033690;28;20662;-68
2022/05/05 02:05:16;;;;;;;8.43;6.70;;;;;;;8.82;72.13;95308.97;5032965;28;20328;-68
2022/05/05 02:07:48;;;;;;;7.47;6.50;;;;;;;8.79;72.23;95306.91;5032531;28;20230;-68
2022/05/05 02:10:20;;;;;;;8.27;6.95;;;;;;;8.76;72.28;95302.88;5033590;28;20218;-68
2022/05/05 02:12:51;;;;;;;9.23;7.57;;;;;;;8.74;72.60;95307.09;5016121;28;20234;-68
2022/05/05 02:15:21;;;;;;;9.37;7.70;;;;;;;8.74;73.19;95304.34;5033817;28;20191;-68
2022/05/05 02:17:49;;;;;;;9.18;7.13;;;;;;;8.77;73.56;95310.00;5016822;28;20209;-68
2022/05/05 02:20:18;;;;;;;6.73;6.03;;;;;;;8.77;73.20;95309.19;5034199;28;20187;-68
2022/05/05 02:22:45;;;;;;;6.68;6.07;;;;;;;8.78;73.55;95295.09;5033034;28;20201;-68
2022/05/05 02:25:14;;;;;;;8.45;6.20;;;;;;;8.79;73.21;95304.16;5034706;28;20218;-68
2022/05/05 02:27:49;;;;;;;6.50;5.90;;;;;;;8.77;73.45;95307.25;5033614;28;20210;-68
2022/05/05 02:30:18;;;;;;;6.00;5.40;;;;;;;8.80;73.52;95308.53;5032858;28;20324;-68
2022/05/05 02:32:47;;;;;;;8.48;6.35;;;;;;;8.75;72.92;95309.53;5032373;28;20195;-68
2022/05/05 02:35:15;;;;;;;7.65;6.70;;;;;;;8.69;72.03;95308.13;5033736;28;20552;-68
2022/05/05 02:40:31;;;;;;;8.50;7.03;;;;;;;8.48;71.82;95308.09;5016026;28;20662;-69
2022/05/05 02:43:04;;;;;;;7.63;6.55;;;;;;;8.41;72.04;95305.06;5036678;28;20178;-68
2022/05/05 02:45:34;;;;;;;7.80;6.80;;;;;;;8.37;72.53;95304.09;5035680;28;20346;-69
2022/05/05 02:48:02;;;;;;;7.53;6.73;;;;;;;8.33;72.54;95309.44;5036553;28;20205;-68
2022/05/05 02:50:29;;;;;;;7.83;6.37;;;;;;;8.29;72.30;95313.19;5036370;28;20212;-69
2022/05/05 02:53:00;;;;;;;8.03;6.47;;;;;;;8.25;72.31;95315.81;5036803;28;20200;-69
2022/05/05 02:55:27;;;;;;;9.80;6.73;;;;;;;8.27;72.88;95320.97;5037373;28;20276;-69
2022/05/05 02:57:55;;;;;;;8.53;7.03;;;;;;;8.30;73.19;95325.81;5037612;28;20214;-69
2022/05/05 03:00:23;;;;;;;8.47;6.63;;;;;;;8.32;72.81;95327.09;5037252;28;20202;-69
2022/05/05 03:02:51;;;;;;;7.90;7.03;;;;;;;8.32;72.58;95337.28;5037013;28;20182;-68
2022/05/05 03:05:19;;;;;;;8.33;6.30;;;;;;;8.31;72.87;95335.66;5036653;28;20197;-70
2022/05/05 03:07:48;;;;;;;7.82;7.00;;;;;;;8.33;72.69;95342.44;5037103;28;20529;-67
2022/05/05 03:10:16;;;;;;;7.40;6.50;;;;;;;8.37;73.43;95346.16;5035600;28;20206;-67
2022/05/05 03:12:44;;;;;;;7.63;6.30;;;;;;;8.42;73.58;95348.72;5036889;28;20195;-67
2022/05/05 03:15:12;;;;;;;9.32;6.65;;;;;;;8.44;73.23;95351.13;5037062;28;20193;-67
2022/05/05 03:17:44;;;;;;;6.68;6.07;;;;;;;8.49;73.65;95350.13;5037235;28;20197;-67
2022/05/05 03:20:13;;;;;;;7.17;5.57;;;;;;;8.55;73.50;95346.06;5035884;28;20522;-67
2022/05/05 03:22:41;;;;;;;6.73;6.03;;;;;;;8.58;73.51;95353.63;5019277;28;20202;-67
2022/05/05 03:25:09;;;;;;;6.50;5.87;;;;;;;8.61;73.51;95351.03;5037138;28;20622;-67
2022/05/05 03:27:37;;;;;;;8.03;6.10;;;;;;;8.61;73.67;95351.03;5036422;28;20293;-67
2022/05/05 03:30:06;;;;;;;7.27;6.00;;;;;;;8.61;73.54;95345.53;5018807;28;20245;-68
2022/05/05 03:32:34;;;;;;;9.10;7.20;;;;;;;8.60;73.50;95349.41;5036825;28;20182;-68
2022/05/05 03:35:07;;;;;;;8.30;6.57;;;;;;;8.57;73.86;95350.09;5019753;28;20214;-67
2022/05/05 03:37:35;;;;;;;12.20;8.90;;;;;;;8.57;74.49;95350.09;5036037;28;20594;-67
2022/05/05 03:40:04;;;;;;;9.07;7.37;;;;;;;8.60;74.61;95360.41;5036579;28;20190;-68
2022/05/05 03:42:33;;;;;;;15.00;8.33;;;;;;;8.63;74.70;95357.00;5035864;28;20182;-69
2022/05/05 03:45:01;;;;;;;10.40;7.87;;;;;;;8.64;74.54;95360.53;5018447;28;20660;-69
2022/05/05 03:47:29;;;;;;;12.13;8.87;;;;;;;8.67;74.43;95357.94;5036270;28;20661;-71
2022/05/05 03:50:00;;;;;;;13.37;8.80;;;;;;;8.66;75.08;95361.03;5019344;28;20202;-73
2022/05/05 03:52:30;;;;;;;17.17;9.23;;;;;;;8.64;75.17;95366.88;5035170;28;20210;-68
2022/05/05 03:55:00;;;;;;;15.20;10.03;;;;;;;8.67;75.51;95365.38;5034379;28;20198;-68
2022/05/05 03:57:28;;;;;;;14.97;10.30;;;;;;;8.71;75.48;95366.31;5018238;28;20201;-67
2022/05/05 03:59:56;;;;;;;13.93;9.90;;;;;;;8.65;75.19;95362.97;5018233;28;20202;-68
2022/05/05 04:02:24;;;;;;;15.00;9.63;;;;;;;8.64;75.29;95363.28;5017671;28;20607;-69
2022/05/05 04:04:52;;;;;;;13.00;10.20;;;;;;;8.61;75.40;95373.03;5036017;28;20202;-69
2022/05/05 04:07:20;;;;;;;12.93;10.40;;;;;;;8.59;75.88;95371.75;5017920;28;20223;-69
2022/05/05 04:09:53;;;;;;;13.53;9.63;;;;;;;8.57;76.13;95374.00;5035073;28;20684;-68
2022/05/05 04:12:21;;;;;;;12.10;10.30;;;;;;;8.61;76.12;95378.53;5034243;28;20685;-68
2022/05/05 04:14:50;;;;;;;15.57;11.63;;;;;;;8.68;75.70;95395.31;5017780;28;20198;-69
2022/05/05 04:17:19;;;;;;;13.43;11.33;;;;;;;8.71;75.68;95395.75;5035411;28;20226;-69
2022/05/05 04:19:47;;;;;;;13.70;11.30;;;;;;;8.69;75.74;95393.34;5035173;28;20191;-68
2022/05/05 04:22:15;;;;;;;13.00;11.23;;;;;;;8.64;75.99;95393.53;5017216;28;20212;-68
2022/05/05 04:24:43;;;;;;;13.70;11.13;;;;;;;8.67;75.99;95390.91;5017509;28;20198;-69
2022/05/05 04:27:13;;;;;;;14.95;11.45;;;;;;;8.68;76.43;95389.00;5034556;28;20657;-69
2022/05/05 04:29:41;;;;;;;12.70;11.27;;;;;;;8.68;76.55;95398.06;5017035;28;20584;-69
2022/05/05 04:32:09;;;;;;;15.60;11.37;;;;;;;8.67;76.59;95396.44;5017575;28;20216;-68
2022/05/05 04:34:37;;;;;;;15.23;12.10;;;;;;;8.69;76.25;95401.59;5034752;28;20197;-69
2022/05/05 04:37:05;;;;;;;15.33;12.27;;;;;;;8.69;76.25;95404.34;5017520;28;20195;-69
2022/05/05 04:39:33;;;;;;;15.52;11.23;;;;;;;8.66;76.22;95402.28;5034703;28;20187;-69
2022/05/05 04:42:00;;;;;;;13.85;11.38;;;;;;;8.66;75.99;95397.56;5017092;28;20614;-69
2022/05/05 04:44:30;;;;;;;13.90;11.87;;;;;;;8.68;76.19;95400.00;5017094;28;20198;-69
2022/05/05 04:46:59;;;;;;;14.30;11.63;;;;;;;8.67;75.86;95388.16;5016791;28;20753;-69
2022/05/05 04:49:26;;;;;;;13.57;10.70;;;;;;;8.70;75.99;95394.16;5034364;28;20618;-69
2022/05/05 04:51:54;;;;;;;17.50;11.90;;;;;;;8.65;75.90;95403.41;5034306;28;20209;-69
2022/05/05 04:54:22;;;;;;;15.65;12.40;;;;;;;8.68;76.60;95409.06;5034388;28;20204;-69
2022/05/05 04:56:50;;;;;;;14.63;12.40;;;;;;;8.68;76.26;95402.75;5034362;28;20183;-69
2022/05/05 04:59:18;;;;;;;14.53;12.90;;;;;;;8.71;76.09;95407.56;5016911;28;20182;-69
2022/05/05 05:01:48;;;;;;;14.45;12.20;;;;;;;8.76;76.72;95406.59;5034315;28;20193;-69
2022/05/05 05:04:16;;;;;;;16.33;12.60;;;;;;;8.71;76.49;95409.50;5033901;28;20198;-69
2022/05/05 05:06:44;;;;;;;14.13;12.47;;;;;;;8.71;76.62;95413.06;5016950;28;20226;-69
2022/05/05 05:09:15;;;;;;;13.77;11.97;;;;;;;8.71;76.63;95421.31;5033801;28;20580;-69
2022/05/05 05:11:43;;;;;;;14.15;12.30;;;;;;;8.73;76.43;95413.56;5016504;28;20257;-69
2022/05/05 05:14:11;;;;;;;17.03;12.37;;;;;;;8.71;76.59;95407.56;5033772;28;20515;-69
2022/05/05 05:16:39;;;;;;;13.52;12.13;;;;;;;8.72;76.14;95411.16;5033909;28;20533;-69
2022/05/05 05:19:09;;;;;;;14.25;12.13;;;;;;;8.71;75.97;95410.31;5034108;28;20190;-69
2022/05/05 05:21:37;;;;;;;15.18;12.02;;;;;;;8.76;76.30;95406.59;5016702;28;20302;-69
2022/05/05 05:24:06;;;;;;;15.53;11.97;;;;;;;8.79;76.27;95397.69;5034067;28;20186;-69
2022/05/05 05:26:34;;;;;;;17.05;13.38;;;;;;;8.77;76.12;95408.19;5016447;28;20221;-69
2022/05/05 05:29:03;;;;;;;15.13;13.63;;;;;;;8.73;75.77;95408.06;5033459;28;20249;-69
2022/05/05 05:31:35;;;;;;;17.25;13.55;;;;;;;8.76;76.23;95410.13;5016450;28;20191;-69
2022/05/05 05:34:03;;;;;;;16.47;14.00;;;;;;;8.82;76.71;95411.56;5016328;28;20210;-69
2022/05/05 05:36:35;;;;;;;16.83;14.83;;;;;;;8.83;76.54;95423.38;5033744;28;20187;-69
2022/05/05 05:39:03;;;;;;;17.00;13.75;;;;;;;8.80;75.92;95421.28;5033825;28;20230;-69
2022/05/05 05:41:32;;;;;;;14.73;13.17;;;;;;;8.81;75.96;95428.38;5033900;28;20174;-69
2022/05/05 05:44:01;;;;;;;16.83;14.60;;;;;;;8.84;75.63;95420.28;5033527;28;20242;-69
2022/05/05 05:46:29;;;;;;;20.17;17.83;;;;;;;8.90;75.90;95432.72;5016232;28;20245;-69
2022/05/05 05:48:59;;;;;;;36.17;32.17;;;;;;;8.97;76.48;95436.84;5033319;28;20662;-69
2022/05/05 05:51:26;;;;;;;46.80;41.97;;;;;;;9.00;76.21;95431.50;5016262;28;20267;-69
2022/05/05 05:53:55;;;;;;;39.40;35.20;;;;;;;9.03;76.37;95430.81;5016206;28;20222;-69
2022/05/05 05:56:24;;;;;;;26.08;21.33;;;;;;;9.03;76.60;95421.78;5033493;28;20190;-69
2022/05/05 05:58:54;;;;;;;35.23;28.23;;;;;;;9.03;76.47;95430.81;5015887;28;20291;-69
2022/05/05 06:03:53;;;;;;;36.90;30.50;;;;;;;9.02;77.13;95431.19;5016210;28;20233;-69
2022/05/05 06:04:13;;;;;;;51.08;44.60;;;;;;;9.02;76.19;95422.91;5015788;28;20581;-69
2022/05/05 06:06:41;;;;;;;57.60;50.93;;;;;;;9.02;76.97;95426.47;5033120;28;20289;-69
2022/05/05 06:09:13;;;;;;;50.47;45.07;;;;;;;9.09;77.11;95432.25;5015868;28;20602;-69
2022/05/05 06:11:44;;;;;;;52.87;43.17;;;;;;;9.15;76.96;95443.88;5033450;28;20198;-69
2022/05/05 06:14:11;;;;;;;52.90;42.10;;;;;;;9.19;76.54;95438.47;5016139;28;20308;-69
2022/05/05 06:16:39;;;;;;;48.63;40.27;;;;;;;9.21;76.63;95427.97;5035625;28;20187;-68
2022/05/05 06:19:07;;;;;;;47.83;41.03;;;;;;;9.25;76.59;95428.91;5037379;28;20195;-69
2022/05/05 06:21:35;;;;;;;49.90;42.20;;;;;;;9.29;76.57;95425.13;5019666;28;20210;-69
2022/05/05 06:24:04;;;;;;;48.67;40.43;;;;;;;9.34;76.07;95424.94;5019811;28;20198;-69
2022/05/05 06:26:33;;;;;;;53.03;42.65;;;;;;;9.37;76.22;95420.72;5019165;28;20249;-69
2022/05/05 06:29:01;;;;;;;55.35;43.22;;;;;;;9.38;77.44;95417.63;5036771;28;20651;-69
2022/05/05 06:31:28;;;;;;;47.22;36.60;;;;;;;9.35;77.68;95418.28;5019730;28;20202;-68
2022/05/05 06:33:55;;;;;;;43.77;34.37;;;;;;;9.32;78.03;95418.16;5036900;28;20218;-69
2022/05/05 06:36:25;;;;;;;40.47;33.63;;;;;;;9.29;77.52;95422.38;5036938;28;20206;-68
2022/05/05 06:38:56;;;;;;;40.10;33.00;;;;;;;9.35;77.75;95426.53;5036770;28;20183;-70
2022/05/05 06:41:26;;;;;;;40.77;31.20;;;;;;;9.39;77.54;95430.22;5036638;28;20198;-68
2022/05/05 06:43:56;;;;;;;39.17;32.17;;;;;;;9.42;77.11;95433.47;5019056;28;20194;-68
2022/05/05 06:46:24;;;;;;;38.10;31.33;;;;;;;9.45;76.88;95430.03;5036496;28;20587;-68
2022/05/05 06:48:52;;;;;;;36.57;28.40;;;;;;;9.51;77.23;95426.72;5019541;28;20210;-68
2022/05/05 06:51:21;;;;;;;29.80;25.57;;;;;;;9.55;77.45;95430.44;5019091;28;20198;-68
2022/05/05 06:53:49;;;;;;;27.73;24.60;;;;;;;9.64;77.37;95433.91;5019202;28;20194;-68
2022/05/05 06:56:18;;;;;;;30.00;25.70;;;;;;;9.69;77.01;95435.63;5036625;28;20262;-68
2022/05/05 06:58:46;;;;;;;34.40;27.60;;;;;;;9.78;77.68;95443.84;5019101;28;20205;-68
2022/05/05 07:06:59;;;;;;;28.67;23.80;;;;;;;9.93;77.10;95434.94;4972231;28;20247;-68
2022/05/05 07:12:13;;;;;;;25.33;22.53;;;;;;;10.02;76.12;95423.81;4956096;29;20220;-68
2022/05/05 07:14:43;;;;;;;23.83;21.23;;;;;;;10.06;76.00;95439.34;4972201;28;20205;-68
2022/05/05 07:17:14;;;;;;;24.77;22.00;;;;;;;10.10;75.53;95432.00;4972109;28;20227;-68
2022/05/05 07:19:44;;;;;;;25.75;21.38;;;;;;;10.17;76.96;95430.63;4939833;29;20220;-68
2022/05/05 07:22:15;;;;;;;25.53;22.67;;;;;;;10.28;77.29;95431.84;4955827;29;20200;-68
2022/05/05 07:24:46;;;;;;;25.73;21.13;;;;;;;10.34;76.67;95425.75;4955869;29;20223;-68
2022/05/05 07:27:16;;;;;;;24.33;20.67;;;;;;;10.44;77.02;95426.44;4970728;28;20229;-68
2022/05/05 07:29:45;;;;;;;27.37;21.97;;;;;;;10.51;76.27;95430.25;4955481;28;20248;-68
2022/05/05 07:32:14;;;;;;;24.38;20.75;;;;;;;10.57;75.39;95426.13;4939557;29;20212;-68
2022/05/05 07:34:42;;;;;;;22.00;19.70;;;;;;;10.64;75.37;95431.06;4955617;29;20245;-68
2022/05/05 07:37:09;;;;;;;25.05;20.20;;;;;;;10.68;74.67;95440.28;4939685;29;20422;-68
2022/05/05 07:39:37;;;;;;;24.40;20.25;;;;;;;10.73;74.80;95437.25;4998799;28;20207;-68
2022/05/05 07:42:08;;;;;;;23.77;19.52;;;;;;;10.78;74.58;95430.72;5015968;28;20202;-68
2022/05/05 07:44:36;;;;;;;22.80;20.35;;;;;;;10.86;74.69;95435.31;4998780;28;20201;-68
2022/05/05 07:47:04;;;;;;;24.00;19.10;;;;;;;10.91;74.12;95437.84;4998517;28;20221;-68
2022/05/05 07:49:38;;;;;;;22.50;19.42;;;;;;;10.96;73.66;95436.78;4998584;28;20207;-68
2022/05/05 07:52:06;;;;;;;25.25;20.75;;;;;;;11.05;73.87;95434.72;5015707;28;20202;-68
2022/05/05 07:54:38;;;;;;;27.77;20.90;;;;;;;11.14;72.89;95442.88;4998485;28;20210;-68
2022/05/05 07:57:08;;;;;;;23.63;19.70;;;;;;;11.24;73.59;95445.16;5015557;28;20190;-68
2022/05/05 07:59:35;;;;;;;26.02;20.90;;;;;;;11.41;74.15;95438.56;5015372;28;20222;-69
2022/05/05 08:02:04;;;;;;;24.03;19.63;;;;;;;11.50;72.56;95444.75;5015624;28;20187;-69
2022/05/05 08:04:38;;;;;;;23.63;20.17;;;;;;;11.56;72.55;95435.88;4998196;28;20203;-68
2022/05/05 08:07:06;;;;;;;22.63;18.83;;;;;;;11.74;73.57;95443.88;5015485;28;20206;-68
2022/05/05 08:09:33;;;;;;;25.93;18.40;;;;;;;11.91;72.59;95445.56;4998173;28;20230;-68
2022/05/05 08:12:01;;;;;;;20.60;17.90;;;;;;;12.08;69.98;95444.44;4998328;28;20207;-68
2022/05/05 08:14:28;;;;;;;23.83;18.67;;;;;;;12.08;69.82;95445.25;5015328;28;20485;-68
2022/05/05 08:16:57;;;;;;;23.80;18.40;;;;;;;12.17;71.45;95434.84;4997838;28;20202;-68
2022/05/05 08:19:25;;;;;;;23.05;18.17;;;;;;;12.36;70.79;95441.66;5015484;28;20297;-68
2022/05/05 08:21:54;;;;;;;22.50;18.80;;;;;;;12.43;69.25;95439.06;5015354;28;20535;-68
2022/05/05 08:29:54;;;;;;;23.65;18.85;;;;;;;12.86;69.99;95435.41;5026740;28;20226;-68
2022/05/05 08:32:23;;;;;;;25.80;18.60;;;;;;;12.93;69.26;95430.03;5017449;28;20198;-69
2022/05/05 08:34:51;;;;;;;21.45;17.30;;;;;;;13.14;68.94;95432.47;5017084;28;20277;-68
2022/05/05 08:37:22;;;;;;;21.52;16.75;;;;;;;13.23;68.12;95429.53;5017096;28;20206;-68
2022/05/05 08:39:50;;;;;;;21.53;16.93;;;;;;;13.48;68.22;95425.38;5034344;28;20252;-69
2022/05/05 08:42:19;;;;;;;24.30;17.20;;;;;;;13.57;67.45;95424.38;5017172;28;20195;-68
2022/05/05 08:44:47;;;;;;;21.67;17.08;;;;;;;13.66;66.85;95427.75;5017134;28;20563;-68
2022/05/05 08:47:18;;;;;;;21.70;16.20;;;;;;;13.63;66.44;95434.00;5033885;28;20218;-68
2022/05/05 08:49:46;;;;;;;17.65;15.07;;;;;;;13.72;64.82;95429.84;5034575;28;20217;-68
2022/05/05 08:52:19;;;;;;;17.47;15.50;;;;;;;13.92;65.94;95425.09;5016947;28;20210;-68
2022/05/05 08:54:49;;;;;;;20.10;16.07;;;;;;;14.15;66.96;95424.34;5034368;28;20199;-68
2022/05/05 09:00:05;;;;;;;19.67;14.82;;;;;;;14.41;62.63;95423.63;5016809;28;20202;-69
2022/05/05 09:02:35;;;;;;;17.02;13.52;;;;;;;14.43;61.72;95413.78;5016853;28;20206;-69
2022/05/05 09:05:04;;;;;;;15.33;12.37;;;;;;;14.61;60.77;95418.88;5034009;28;20202;-69
2022/05/05 09:07:47;;;;;;;17.40;12.95;;;;;;;14.92;63.39;95415.84;5016906;28;20214;-69
2022/05/05 09:10:18;;;;;;;15.18;12.60;;;;;;;15.03;61.81;95417.97;5033924;28;20191;-68
2022/05/05 09:13:00;;;;;;;13.70;12.00;;;;;;;15.17;61.30;95407.84;5034137;28;20200;-68
2022/05/05 09:15:35;;;;;;;14.52;12.40;;;;;;;15.25;59.14;95411.56;5016522;28;20230;-69
2022/05/05 09:18:13;;;;;;;18.27;12.47;;;;;;;15.35;59.59;95410.09;5033948;28;20194;-68
2022/05/05 09:20:40;;;;;;;15.35;12.73;;;;;;;15.45;57.29;95409.47;5033642;28;20241;-68
2022/05/05 09:23:08;;;;;;;13.35;11.73;;;;;;;15.59;58.49;95398.53;5033863;28;20190;-68
2022/05/05 09:25:47;;;;;;;15.27;11.57;;;;;;;15.71;57.34;95405.06;5016558;28;20197;-69
2022/05/05 09:28:19;;;;;;;13.60;10.10;;;;;;;16.01;58.32;95403.06;5033473;28;20220;-69
2022/05/05 09:30:49;;;;;;;12.57;10.70;;;;;;;16.12;55.69;95395.63;5033512;28;20234;-69
2022/05/05 09:33:18;;;;;;;14.52;11.98;;;;;;;16.18;55.19;95401.63;5034051;28;20186;-69
2022/05/05 09:35:56;;;;;;;12.50;11.20;;;;;;;16.18;57.34;95401.63;5016408;28;20709;-69
2022/05/05 09:38:24;;;;;;;11.63;10.40;;;;;;;16.31;55.97;95396.63;5016369;28;20191;-68
2022/05/05 09:41:04;;;;;;;16.48;11.35;;;;;;;16.54;55.11;95402.00;5016178;28;20217;-68
2022/05/05 09:43:33;;;;;;;13.40;11.40;;;;;;;16.62;53.16;95392.53;5016050;28;20264;-68
2022/05/05 09:46:01;;;;;;;13.57;10.20;;;;;;;16.68;52.58;95390.22;5033297;28;20233;-68
2022/05/05 09:48:29;;;;;;;9.65;7.93;;;;;;;16.86;50.63;95387.59;5016731;28;20206;-68
2022/05/05 09:51:00;;;;;;;11.70;8.70;;;;;;;16.93;49.34;95388.47;5034459;28;20193;-69
2022/05/05 09:59:02;;;;;;;8.77;7.50;;;;;;;17.21;49.65;95381.47;5036562;28;20194;-68
2022/05/05 10:01:31;;;;;;;8.53;6.67;;;;;;;17.27;49.35;95380.72;5036655;28;20206;-68
2022/05/05 10:04:06;;;;;;;5.78;5.20;;;;;;;17.31;46.33;95378.75;5037221;28;20607;-68
2022/05/05 10:06:36;;;;;;;7.75;6.50;;;;;;;17.29;47.31;95372.00;5019901;28;20296;-69
2022/05/05 10:09:05;;;;;;;13.90;6.97;;;;;;;17.46;48.74;95379.63;5036440;28;20218;-68
2022/05/05 10:11:40;;;;;;;5.93;5.13;;;;;;;17.68;47.94;95380.53;5037521;28;20194;-68
2022/05/05 10:14:09;;;;;;;7.55;6.85;;;;;;;17.77;48.32;95378.25;5019955;28;20240;-68
2022/05/05 10:16:38;;;;;;;6.88;5.30;;;;;;;17.87;46.84;95378.69;5037265;28;20199;-68
2022/05/05 10:19:06;;;;;;;5.28;4.78;;;;;;;17.84;46.17;95371.09;5036411;28;20194;-68
2022/05/05 10:21:49;;;;;;;5.80;4.68;;;;;;;17.90;46.08;95373.13;5019602;28;20206;-68
2022/05/05 10:24:20;;;;;;;5.55;4.75;;;;;;;17.98;47.66;95371.94;5037175;28;20193;-68
2022/05/05 10:26:54;;;;;;;5.28;4.80;;;;;;;18.25;47.04;95374.41;5036887;28;20285;-68
2022/05/05 10:29:40;;;;;;;4.43;3.92;;;;;;;18.35;43.88;95382.00;5019620;28;20321;-68
2022/05/05 10:32:11;;;;;;;4.25;3.75;;;;;;;18.38;44.23;95386.81;5037204;28;20563;-68
2022/05/05 10:34:40;;;;;;;3.22;2.92;;;;;;;18.58;45.41;95383.66;5019993;28;20190;-68
2022/05/05 10:37:09;;;;;;;3.55;3.25;;;;;;;18.63;44.86;95383.28;5037210;28;20190;-68
2022/05/05 10:40:15;;;;;;;3.28;3.08;;;;;;;18.66;44.33;95376.88;5037124;28;20193;-69
2022/05/05 10:42:45;;;;;;;5.32;3.50;;;;;;;18.76;44.23;95373.31;5034599;28;20248;-68
2022/05/05 10:45:17;;;;;;;3.00;2.80;;;;;;;18.82;40.37;95373.72;5036558;28;20579;-68
2022/05/05 10:48:18;;;;;;;2.90;2.58;;;;;;;18.74;41.32;95368.13;5019601;28;20233;-68
2022/05/05 10:50:53;;;;;;;3.35;3.05;;;;;;;18.86;43.05;95378.13;5035656;28;20206;-68
2022/05/05 10:53:30;;;;;;;2.75;2.55;;;;;;;18.95;41.77;95370.13;5036809;28;20190;-68
2022/05/05 10:56:00;;;;;;;3.00;2.47;;;;;;;18.91;42.08;95376.91;5019283;28;20202;-68
2022/05/05 10:59:04;;;;;;;3.47;2.88;;;;;;;19.06;41.65;95370.09;5035468;28;20205;-68
2022/05/05 11:02:00;;;;;;;3.20;2.90;;;;;;;19.30;42.14;95376.09;5036096;28;20213;-68
2022/05/05 11:04:33;;;;;;;3.30;3.00;;;;;;;19.41;42.56;95366.47;5019149;28;20222;-68
2022/05/05 11:10:46;;;;;;;3.47;2.90;;;;;;;19.49;44.75;95368.03;5017035;28;20653;-68
2022/05/05 11:13:37;;;;;;;3.72;3.42;;;;;;;19.66;43.49;95362.84;5003272;28;20201;-68
2022/05/05 11:22:10;;;;;;;3.75;3.30;;;;;;;19.70;43.56;95370.00;5018797;28;20234;-68
2022/05/05 11:24:37;;;;;;;3.63;3.20;;;;;;;19.71;43.68;95368.81;5018564;28;20198;-68
2022/05/05 11:27:05;;;;;;;4.90;3.60;;;;;;;19.88;43.57;95371.97;5036076;28;20187;-68
2022/05/05 11:29:32;;;;;;;3.50;3.20;;;;;;;20.08;42.28;95366.66;5018459;28;20238;-68
2022/05/05 11:32:02;;;;;;;3.33;3.00;;;;;;;20.14;43.45;95371.44;5036066;28;20225;-68
2022/05/05 11:34:36;;;;;;;3.40;3.20;;;;;;;20.13;43.04;95378.25;5035867;28;20202;-68
2022/05/05 11:37:05;;;;;;;4.07;3.45;;;;;;;20.00;41.88;95368.69;5036144;28;20198;-68
2022/05/05 11:39:33;;;;;;;2.92;2.72;;;;;;;20.06;43.69;95363.47;5018115;28;20226;-69
2022/05/05 11:42:03;;;;;;;3.20;2.75;;;;;;;20.19;41.87;95368.22;5018396;28;20198;-68
2022/05/05 11:44:29;;;;;;;3.58;3.00;;;;;;;20.22;42.17;95377.00;5035118;28;20301;-69
2022/05/05 11:46:58;;;;;;;2.97;2.78;;;;;;;20.32;42.08;95367.75;5034640;28;20285;-69
2022/05/05 11:49:32;;;;;;;3.08;2.88;;;;;;;20.38;40.91;95372.50;5035592;28;20240;-69
2022/05/05 11:52:01;;;;;;;2.97;2.78;;;;;;;20.18;38.29;95366.59;5018067;28;20530;-69
2022/05/05 11:54:30;;;;;;;4.37;3.97;;;;;;;20.06;40.27;95355.88;5035437;28;20194;-69
2022/05/05 11:56:57;;;;;;;4.32;2.90;;;;;;;20.15;39.57;95353.44;5034640;28;20397;-69
2022/05/05 12:02:11;;;;;;;3.20;3.00;;;;;;;20.22;38.61;95346.19;5035037;28;20190;-69
2022/05/05 12:04:44;;;;;;;2.50;2.30;;;;;;;20.19;38.58;95351.41;5035430;28;20213;-69
2022/05/05 12:07:19;;;;;;;2.80;2.60;;;;;;;20.21;39.49;95342.59;5035312;28;20257;-69
2022/05/05 12:09:47;;;;;;;2.78;2.58;;;;;;;20.29;39.70;95340.53;5034784;28;20216;-69
2022/05/05 12:12:17;;;;;;;2.97;2.72;;;;;;;20.37;38.05;95345.72;5035032;28;20621;-68
2022/05/05 12:14:47;;;;;;;2.55;2.35;;;;;;;20.45;37.35;95340.84;5016800;28;20190;-69
2022/05/05 12:17:18;;;;;;;5.57;2.47;;;;;;;20.51;38.17;95338.44;5017737;28;20202;-69
2022/05/05 12:19:50;;;;;;;3.00;2.70;;;;;;;20.52;37.38;95338.03;5017787;28;20213;-69
2022/05/05 12:22:32;;;;;;;3.88;2.75;;;;;;;20.45;37.96;95340.84;5017700;28;20191;-69
2022/05/05 12:25:04;;;;;;;3.45;2.65;;;;;;;20.16;37.27;95334.63;5015467;28;20214;-68
2022/05/05 12:27:31;;;;;;;2.95;2.50;;;;;;;19.98;37.65;95340.31;5034678;28;20495;-69